map of PNL home
Great Circle Mapper logo
PNL - Airport
Location
City:  Pantelleria, Pantelleria Island, Sicily, Italy
ICAO / IATA:LICG / PNL

Details
Type:Airport (Aerodrome, Airfield)
Use:Military
Latitude:3648'59"N (36.816519)
Longitude:1158'08"E (11.968864)
Datum:WGS 1984
Elevation:635 ft (194 m)
Runways:2
Longest:5495 × 148 ft (1675 × 45 m), paved

Time
Time Zone:UTC+1 (DST+2)
Local Time:

Weather
METAR:LICG 221755Z 29017KT 9999 SCT015 24/22 Q1012 RMK SCT VIS MIN 9999 WIND THR08 31012KT WIND THR21 29014G25KT BLU

Related Locations
Nearby:
Farthest:CHT: 11780 mi / 18957 km
Waitangi [Tuuta], Chatham Islands, NZ

Find:

   beyond  
but within

Other Information
Maps:
NOTAMs:
Links:
Sources:

  
flag of Italy
flag of Sicily
  

Sectional Chart

Flight Planning
at skyvector.com

Satellite Image

Google Maps Satellite View

 

Copyright © 2004-2014 Karl L. Swartz. All rights reserved.
The Great Circle Mapper name and logo are trademarks of the Great Circle Mapper.
All other trademarks mentioned herein belong to their respective owners.
Please see credits for attibutions and further copyright information.

  Follow gcmap on Facebook Follow gcmap on Twitter

hCard Microformat

Geo Microformat